createdAt,value
2017-12-01T00:00:53.625Z,0.20
2017-12-01T00:01:53.617Z,0.11
2017-12-01T00:02:53.685Z,0.16
2017-12-01T00:03:53.695Z,0.02
2017-12-01T00:04:53.716Z,0.11
2017-12-01T00:05:53.687Z,0.19
2017-12-01T00:06:53.658Z,0.20
2017-12-01T00:07:53.642Z,0.24
2017-12-01T00:08:53.632Z,0.18
2017-12-01T00:09:53.657Z,0.18
2017-12-01T00:10:53.632Z,0.20
2017-12-01T00:11:53.578Z,0.18
2017-12-01T00:12:53.536Z,0.24
2017-12-01T00:13:53.526Z,0.26
2017-12-01T00:14:53.518Z,0.29
2017-12-01T00:15:53.511Z,0.30
2017-12-01T00:16:53.504Z,0.30
2017-12-01T00:17:53.496Z,0.26
2017-12-01T00:18:53.489Z,0.26
2017-12-01T00:19:53.485Z,0.31
2017-12-01T00:20:53.473Z,0.26
2017-12-01T00:21:53.465Z,0.19
2017-12-01T00:22:53.457Z,0.15
2017-12-01T00:23:53.450Z,0.20
2017-12-01T00:24:53.442Z,0.15
2017-12-01T00:25:53.438Z,0.08
2017-12-01T00:26:53.426Z,-0.07
2017-12-01T00:27:53.476Z,-0.02
2017-12-01T00:28:53.412Z,-0.03
2017-12-01T00:29:53.404Z,-0.02
2017-12-01T00:30:53.397Z,-0.05
2017-12-01T00:31:53.390Z,0.02
2017-12-01T00:32:53.381Z,0.09
2017-12-01T00:33:53.374Z,0.12
2017-12-01T00:34:53.366Z,0.15
2017-12-01T00:35:53.357Z,0.11
2017-12-01T00:36:53.351Z,0.15
2017-12-01T00:37:53.343Z,0.16
2017-12-01T00:38:53.341Z,0.23
2017-12-01T00:39:53.328Z,0.16
2017-12-01T00:40:53.321Z,0.15
2017-12-01T00:41:53.311Z,0.20
2017-12-01T00:42:53.304Z,0.18
2017-12-01T00:43:53.297Z,0.20
2017-12-01T00:44:53.293Z,0.18
2017-12-01T00:45:53.284Z,0.19
2017-12-01T00:46:53.273Z,0.18
2017-12-01T00:47:53.267Z,0.20
2017-12-01T00:48:53.258Z,0.11
2017-12-01T00:49:53.250Z,0.16
2017-12-01T00:50:53.243Z,0.05
2017-12-01T00:51:53.236Z,0.05
2017-12-01T00:52:53.230Z,0.01
2017-12-01T00:53:53.221Z,-0.13
2017-12-01T00:54:53.214Z,-0.17
2017-12-01T00:55:53.205Z,-0.10
2017-12-01T00:56:53.200Z,-0.10
2017-12-01T00:57:53.189Z,-0.13
2017-12-01T00:58:53.182Z,-0.18
2017-12-01T00:59:53.174Z,-0.09
2017-12-01T01:00:53.168Z,-0.06
2017-12-01T01:01:53.159Z,-0.03
2017-12-01T01:02:53.152Z,-0.17
2017-12-01T01:03:53.143Z,-0.10
2017-12-01T01:04:53.146Z,-0.10
2017-12-01T01:05:53.129Z,-0.26
2017-12-01T01:06:53.119Z,-0.23
2017-12-01T01:07:53.112Z,-0.18
2017-12-01T01:08:53.105Z,-0.27
2017-12-01T01:09:53.096Z,-0.24
2017-12-01T01:10:53.089Z,-0.13
2017-12-01T01:11:53.082Z,-0.24
2017-12-01T01:12:53.074Z,-0.24
2017-12-01T01:13:53.065Z,-0.38
2017-12-01T01:14:53.058Z,-0.42
2017-12-01T01:15:53.051Z,-0.56
2017-12-01T01:16:53.042Z,-0.62
2017-12-01T01:17:53.035Z,-0.62
2017-12-01T01:18:53.026Z,-0.72
2017-12-01T01:19:53.019Z,-0.66
2017-12-01T01:20:53.011Z,-0.69
2017-12-01T01:21:53.002Z,-0.67
2017-12-01T01:22:52.995Z,-0.66
2017-12-01T01:23:52.987Z,-0.57
2017-12-01T01:24:52.980Z,-0.48
2017-12-01T01:25:52.971Z,-0.57
2017-12-01T01:26:52.963Z,-0.53
2017-12-01T01:27:52.955Z,-0.45
2017-12-01T01:28:52.974Z,-0.42
2017-12-01T01:29:52.939Z,-0.39
2017-12-01T01:30:52.930Z,-0.36
2017-12-01T01:31:52.923Z,-0.44
2017-12-01T01:32:52.914Z,-0.54
2017-12-01T01:33:52.906Z,-0.54
2017-12-01T01:34:52.900Z,-0.51
2017-12-01T01:35:52.893Z,-0.56
2017-12-01T01:36:52.883Z,-0.66
2017-12-01T01:37:52.873Z,-0.66
2017-12-01T01:38:52.866Z,-0.78
2017-12-01T01:39:52.859Z,-0.96
2017-12-01T01:40:52.851Z,-0.94
2017-12-01T01:41:52.841Z,-0.93
2017-12-01T01:42:52.835Z,-0.85
2017-12-01T01:43:52.827Z,-0.96
2017-12-01T01:44:52.818Z,-0.80
2017-12-01T01:45:52.809Z,-0.84
2017-12-01T01:46:52.801Z,-0.80
2017-12-01T01:47:52.793Z,-0.74
2017-12-01T01:48:52.787Z,-0.77
2017-12-01T01:49:52.777Z,-0.84
2017-12-01T01:50:52.768Z,-0.96
2017-12-01T01:51:52.760Z,-1.00
2017-12-01T01:52:52.754Z,-1.12
2017-12-01T01:53:52.745Z,-1.11
2017-12-01T01:54:52.736Z,-1.12
2017-12-01T01:55:52.729Z,-1.14
2017-12-01T01:56:52.725Z,-1.03
2017-12-01T01:57:52.711Z,-0.96
2017-12-01T01:58:52.703Z,-0.96
2017-12-01T01:59:52.696Z,-0.94
2017-12-01T02:00:52.689Z,-0.96
2017-12-01T02:01:52.679Z,-0.93
2017-12-01T02:02:52.670Z,-0.93
2017-12-01T02:03:52.663Z,-0.87
2017-12-01T02:04:52.654Z,-0.91
2017-12-01T02:05:52.645Z,-0.87
2017-12-01T02:06:52.638Z,-0.94
2017-12-01T02:07:52.629Z,-1.06
2017-12-01T02:08:52.621Z,-1.01
2017-12-01T02:09:52.613Z,-1.19
2017-12-01T02:10:52.605Z,-1.21
2017-12-01T02:11:52.600Z,-1.29
2017-12-01T02:12:52.587Z,-1.29
2017-12-01T02:13:52.579Z,-1.29
2017-12-01T02:14:52.570Z,-1.21
2017-12-01T02:15:52.562Z,-1.24
2017-12-01T02:16:52.555Z,-1.19
2017-12-01T02:17:52.546Z,-1.29
2017-12-01T02:18:52.545Z,-1.32
2017-12-01T02:19:52.529Z,-1.38
2017-12-01T02:20:52.521Z,-1.30
2017-12-01T02:21:52.514Z,-1.30
2017-12-01T02:22:52.506Z,-1.33
2017-12-01T02:23:52.497Z,-1.29
2017-12-01T02:24:52.489Z,-1.30
2017-12-01T02:25:52.480Z,-1.38
2017-12-01T02:26:52.471Z,-1.35
2017-12-01T02:27:52.463Z,-1.45
2017-12-01T02:28:52.456Z,-1.53
2017-12-01T02:29:52.446Z,-1.50
2017-12-01T02:30:52.439Z,-1.53
2017-12-01T02:31:52.430Z,-1.54
2017-12-01T02:32:52.423Z,-1.45
2017-12-01T02:33:52.413Z,-1.35
2017-12-01T02:34:52.404Z,-1.39
2017-12-01T02:35:52.398Z,-1.30
2017-12-01T02:36:52.389Z,-1.32
2017-12-01T02:37:52.379Z,-1.32
2017-12-01T02:38:52.372Z,-1.33
2017-12-01T02:39:52.363Z,-1.27
2017-12-01T02:40:52.354Z,-1.11
2017-12-01T02:41:52.346Z,-1.09
2017-12-01T02:42:52.337Z,-1.15
2017-12-01T02:43:52.331Z,-1.12
2017-12-01T02:44:52.323Z,-1.01
2017-12-01T02:45:52.312Z,-0.99
2017-12-01T02:46:52.305Z,-0.94
2017-12-01T02:47:52.297Z,-0.82
2017-12-01T02:48:52.290Z,-0.99
2017-12-01T02:49:52.282Z,-0.97
2017-12-01T02:50:52.270Z,-0.89
2017-12-01T02:51:52.263Z,-0.93
2017-12-01T02:52:52.254Z,-0.93
2017-12-01T02:53:52.246Z,-0.93
2017-12-01T02:54:52.238Z,-0.93
2017-12-01T02:55:52.231Z,-0.87
2017-12-01T02:56:52.221Z,-0.91
2017-12-01T02:57:52.214Z,-0.93
2017-12-01T02:58:52.205Z,-1.00
2017-12-01T02:59:52.197Z,-0.96
2017-12-01T03:00:52.189Z,-1.01
2017-12-01T03:01:52.180Z,-1.11
2017-12-01T03:02:52.171Z,-1.06
2017-12-01T03:03:52.164Z,-1.04
2017-12-01T03:04:52.156Z,-1.06
2017-12-01T03:05:52.146Z,-1.01
2017-12-01T03:06:52.139Z,-1.00
2017-12-01T03:07:52.134Z,-0.94
2017-12-01T03:08:52.122Z,-0.84
2017-12-01T03:09:52.114Z,-0.91
2017-12-01T03:10:52.109Z,-0.85
2017-12-01T03:11:52.099Z,-0.82
2017-12-01T03:12:52.092Z,-0.89
2017-12-01T03:13:52.082Z,-0.75
2017-12-01T03:14:52.075Z,-0.81
2017-12-01T03:15:52.066Z,-0.77
2017-12-01T03:16:52.058Z,-0.84
2017-12-01T03:17:52.048Z,-0.84
2017-12-01T03:18:52.040Z,-0.82
2017-12-01T03:19:52.032Z,-0.75
2017-12-01T03:20:52.023Z,-0.78
2017-12-01T03:21:52.016Z,-0.94
2017-12-01T03:22:52.007Z,-0.72
2017-12-01T03:23:52.000Z,-0.78
2017-12-01T03:24:51.992Z,-0.64
2017-12-01T03:25:51.982Z,-0.69
2017-12-01T03:26:51.975Z,-0.70
2017-12-01T03:27:51.967Z,-0.62
2017-12-01T03:28:51.959Z,-0.53
2017-12-01T03:29:51.951Z,-0.66
2017-12-01T03:30:51.943Z,-0.57
2017-12-01T03:31:51.936Z,-0.69
2017-12-01T03:32:51.927Z,-0.62
2017-12-01T03:33:51.918Z,-0.67
2017-12-01T03:34:51.911Z,-0.66
2017-12-01T03:35:51.903Z,-0.78
2017-12-01T03:36:51.894Z,-0.80
2017-12-01T03:37:51.886Z,-0.75
2017-12-01T03:38:51.878Z,-0.82
2017-12-01T03:39:51.870Z,-0.81
2017-12-01T03:40:51.863Z,-0.91
2017-12-01T03:41:51.853Z,-0.96
2017-12-01T03:42:51.846Z,-1.01
2017-12-01T03:43:51.837Z,-1.12
2017-12-01T03:44:51.830Z,-1.14
2017-12-01T03:45:51.821Z,-1.12
2017-12-01T03:46:51.813Z,-1.09
2017-12-01T03:47:51.809Z,-1.01
2017-12-01T03:48:51.797Z,-0.99
2017-12-01T03:49:51.788Z,-1.03
2017-12-01T03:50:51.782Z,-0.97
2017-12-01T03:51:51.773Z,-0.94
2017-12-01T03:52:51.766Z,-0.99
2017-12-01T03:53:51.755Z,-1.03
2017-12-01T03:54:51.749Z,-1.04
2017-12-01T03:55:51.740Z,-1.15
2017-12-01T03:56:51.733Z,-1.15
2017-12-01T03:57:51.723Z,-1.04
2017-12-01T03:58:51.716Z,-1.00
2017-12-01T03:59:51.708Z,-0.94
2017-12-01T04:00:51.701Z,-0.89
2017-12-01T04:01:51.691Z,-0.82
2017-12-01T04:02:51.683Z,-0.89
2017-12-01T04:03:51.675Z,-0.81
2017-12-01T04:04:51.668Z,-0.64
2017-12-01T04:05:51.657Z,-0.64
2017-12-01T04:06:51.651Z,-0.63
2017-12-01T04:07:51.642Z,-0.72
2017-12-01T04:08:51.634Z,-0.64
2017-12-01T04:09:51.630Z,-0.57
2017-12-01T04:10:51.619Z,-0.64
2017-12-01T04:11:51.610Z,-0.59
2017-12-01T04:12:51.602Z,-0.56
2017-12-01T04:13:51.593Z,-0.49
2017-12-01T04:14:51.586Z,-0.54
2017-12-01T04:15:51.582Z,-0.53
2017-12-01T04:16:51.569Z,-0.42
2017-12-01T04:17:51.561Z,-0.49
2017-12-01T04:18:51.554Z,-0.51
2017-12-01T04:19:51.546Z,-0.67
2017-12-01T04:20:51.537Z,-0.64
2017-12-01T04:21:51.529Z,-0.66
2017-12-01T04:22:51.522Z,-0.67
2017-12-01T04:23:51.512Z,-0.64
2017-12-01T04:24:51.505Z,-0.64
2017-12-01T04:25:51.496Z,-0.63
2017-12-01T04:26:51.489Z,-0.74
2017-12-01T04:27:51.481Z,-0.80
2017-12-01T04:28:51.473Z,-0.80
2017-12-01T04:29:51.466Z,-0.75
2017-12-01T04:30:51.456Z,-0.70
2017-12-01T04:31:51.450Z,-0.75
2017-12-01T04:32:51.441Z,-0.69
2017-12-01T04:33:51.431Z,-0.69
2017-12-01T04:34:51.424Z,-0.66
2017-12-01T04:35:51.416Z,-0.63
2017-12-01T04:36:51.408Z,-0.66
2017-12-01T04:37:51.399Z,-0.67
2017-12-01T04:38:51.393Z,-0.69
2017-12-01T04:39:51.384Z,-0.72
2017-12-01T04:40:51.378Z,-0.80
2017-12-01T04:41:51.367Z,-0.78
2017-12-01T04:42:51.359Z,-0.89
2017-12-01T04:43:51.351Z,-0.93
2017-12-01T04:44:51.344Z,-0.97
2017-12-01T04:45:51.337Z,-0.97
2017-12-01T04:46:51.330Z,-0.97
2017-12-01T04:47:51.322Z,-0.99
2017-12-01T04:48:51.313Z,-1.03
2017-12-01T04:49:51.302Z,-0.96
2017-12-01T04:50:51.295Z,-0.97
2017-12-01T04:51:51.287Z,-0.97
2017-12-01T04:52:51.279Z,-1.01
2017-12-01T04:53:51.271Z,-1.15
2017-12-01T04:54:51.261Z,-1.15
2017-12-01T04:55:51.255Z,-1.15
2017-12-01T04:56:51.247Z,-1.25
2017-12-01T04:57:51.238Z,-1.29
2017-12-01T04:58:51.230Z,-1.29
2017-12-01T04:59:51.222Z,-1.27
2017-12-01T05:00:51.213Z,-1.27
2017-12-01T05:01:51.206Z,-1.27
2017-12-01T05:02:51.195Z,-1.33
2017-12-01T05:03:51.188Z,-1.15
2017-12-01T05:04:51.180Z,-1.24
2017-12-01T05:05:51.171Z,-1.19
2017-12-01T05:06:51.164Z,-1.21
2017-12-01T05:07:51.154Z,-1.12
2017-12-01T05:08:51.146Z,-1.15
2017-12-01T05:09:51.137Z,-1.18
2017-12-01T05:10:51.129Z,-1.30
2017-12-01T05:11:51.122Z,-1.38
2017-12-01T05:12:51.114Z,-1.32
2017-12-01T05:13:51.106Z,-1.36
2017-12-01T05:14:51.097Z,-1.35
2017-12-01T05:15:51.087Z,-1.45
2017-12-01T05:16:51.081Z,-1.48
2017-12-01T05:17:51.071Z,-1.46
2017-12-01T05:18:51.062Z,-1.51
2017-12-01T05:19:51.056Z,-1.53
2017-12-01T05:20:51.047Z,-1.54
2017-12-01T05:21:51.039Z,-1.60
2017-12-01T05:22:51.030Z,-1.57
2017-12-01T05:23:51.022Z,-1.58
2017-12-01T05:24:51.014Z,-1.60
2017-12-01T05:25:51.010Z,-1.63
2017-12-01T05:26:50.995Z,-1.58
2017-12-01T05:27:50.989Z,-1.60
2017-12-01T05:28:50.979Z,-1.57
2017-12-01T05:29:50.970Z,-1.51
2017-12-01T05:30:50.962Z,-1.54
2017-12-01T05:31:50.957Z,-1.57
2017-12-01T05:32:50.945Z,-1.54
2017-12-01T05:33:50.936Z,-1.48
2017-12-01T05:34:50.928Z,-1.46
2017-12-01T05:35:50.920Z,-1.42
2017-12-01T05:36:50.913Z,-1.45
2017-12-01T05:37:50.902Z,-1.42
2017-12-01T05:38:50.894Z,-1.36
2017-12-01T05:39:50.886Z,-1.30
2017-12-01T05:40:50.877Z,-1.27
2017-12-01T05:41:50.869Z,-1.30
2017-12-01T05:42:50.862Z,-1.25
2017-12-01T05:43:50.854Z,-1.27
2017-12-01T05:44:50.844Z,-1.30
2017-12-01T05:45:50.835Z,-1.27
2017-12-01T05:46:50.828Z,-1.19
2017-12-01T05:47:50.819Z,-1.24
2017-12-01T05:48:50.810Z,-1.15
2017-12-01T05:49:50.801Z,-1.17
2017-12-01T05:50:50.793Z,-1.14
2017-12-01T05:51:50.786Z,-1.15
2017-12-01T05:52:50.778Z,-1.14
2017-12-01T05:53:50.769Z,-1.24
2017-12-01T05:54:50.760Z,-1.35
2017-12-01T05:55:50.750Z,-1.46
2017-12-01T05:56:50.743Z,-1.53
2017-12-01T05:57:50.734Z,-1.46
2017-12-01T05:58:50.725Z,-1.56
2017-12-01T05:59:50.720Z,-1.61
2017-12-01T06:00:50.709Z,-1.58
2017-12-01T06:01:50.700Z,-1.63
2017-12-01T06:02:50.693Z,-1.71
2017-12-01T06:03:50.684Z,-1.68
2017-12-01T06:04:50.676Z,-1.71
2017-12-01T06:05:50.667Z,-1.66
2017-12-01T06:06:50.658Z,-1.63
2017-12-01T06:07:50.649Z,-1.63
2017-12-01T06:08:50.642Z,-1.63
2017-12-01T06:09:50.632Z,-1.57
2017-12-01T06:10:50.624Z,-1.72
2017-12-01T06:11:50.615Z,-1.76
2017-12-01T06:12:50.611Z,-1.66
2017-12-01T06:13:50.599Z,-1.60
2017-12-01T06:14:50.590Z,-1.66
2017-12-01T06:15:50.582Z,-1.71
2017-12-01T06:16:50.573Z,-1.76
2017-12-01T06:17:50.563Z,-1.57
2017-12-01T06:18:50.555Z,-1.63
2017-12-01T06:19:50.547Z,-1.68
2017-12-01T06:20:50.538Z,-1.64
2017-12-01T06:21:50.531Z,-1.68
2017-12-01T06:22:50.521Z,-1.60
2017-12-01T06:23:50.513Z,-1.60
2017-12-01T06:24:50.510Z,-1.63
2017-12-01T06:25:50.494Z,-1.58
2017-12-01T06:26:50.487Z,-1.61
2017-12-01T06:27:50.479Z,-1.63
2017-12-01T06:28:50.470Z,-1.60
2017-12-01T06:29:50.462Z,-1.60
2017-12-01T06:30:50.529Z,-1.60
2017-12-01T06:31:50.445Z,-1.57
2017-12-01T06:32:50.436Z,-1.60
2017-12-01T06:33:50.428Z,-1.58
2017-12-01T06:34:50.420Z,-1.61
2017-12-01T06:35:50.410Z,-1.61
2017-12-01T06:36:50.403Z,-1.57
2017-12-01T06:37:50.393Z,-1.64
2017-12-01T06:38:50.383Z,-1.56
2017-12-01T06:39:50.377Z,-1.54
2017-12-01T06:40:50.367Z,-1.54
2017-12-01T06:41:50.361Z,-1.48
2017-12-01T06:42:50.351Z,-1.40
2017-12-01T06:43:50.344Z,-1.38
2017-12-01T06:44:50.334Z,-1.43
2017-12-01T06:45:50.325Z,-1.36
2017-12-01T06:46:50.315Z,-1.32
2017-12-01T06:47:50.307Z,-1.35
2017-12-01T06:48:50.300Z,-1.27
2017-12-01T06:49:50.291Z,-1.43
2017-12-01T06:50:50.284Z,-1.53
2017-12-01T06:51:50.273Z,-1.63
2017-12-01T06:52:50.268Z,-1.75
2017-12-01T06:53:50.260Z,-1.84
2017-12-01T06:54:50.248Z,-2.00
2017-12-01T06:55:50.241Z,-1.99
2017-12-01T06:56:50.230Z,-2.05
2017-12-01T06:57:50.223Z,-2.07
2017-12-01T06:58:50.214Z,-2.05
2017-12-01T06:59:50.206Z,-2.13
2017-12-01T07:00:50.197Z,-2.10
2017-12-01T07:01:50.186Z,-2.14
2017-12-01T07:02:50.179Z,-1.99
2017-12-01T07:03:50.171Z,-1.97
2017-12-01T07:04:50.161Z,-1.82
2017-12-01T07:05:50.153Z,-1.78
2017-12-01T07:06:50.143Z,-1.74
2017-12-01T07:07:50.135Z,-1.66
2017-12-01T07:08:50.127Z,-1.69
2017-12-01T07:09:50.118Z,-1.58
2017-12-01T07:10:50.113Z,-1.58
2017-12-01T07:11:50.100Z,-1.57
2017-12-01T07:12:50.092Z,-1.60
2017-12-01T07:13:50.082Z,-1.57
2017-12-01T07:14:50.074Z,-1.51
2017-12-01T07:15:50.065Z,-1.45
2017-12-01T07:16:50.058Z,-1.39
2017-12-01T07:17:50.048Z,-1.46
2017-12-01T07:18:50.039Z,-1.50
2017-12-01T07:19:50.031Z,-1.42
2017-12-01T07:20:50.026Z,-1.43
2017-12-01T07:21:50.013Z,-1.50
2017-12-01T07:22:50.006Z,-1.56
2017-12-01T07:23:49.998Z,-1.46
2017-12-01T07:24:49.989Z,-1.33
2017-12-01T07:25:49.979Z,-1.29
2017-12-01T07:26:49.971Z,-1.17
2017-12-01T07:27:49.967Z,-1.11
2017-12-01T07:28:49.955Z,-0.99
2017-12-01T07:29:50.248Z,-0.81
2017-12-01T07:30:49.937Z,-0.42
2017-12-01T07:31:49.929Z,0.05
2017-12-01T07:32:49.923Z,0.89
2017-12-01T07:33:49.913Z,1.22
2017-12-01T07:34:49.906Z,1.16
2017-12-01T07:35:49.899Z,1.12
2017-12-01T07:36:49.890Z,0.99
2017-12-01T07:37:49.881Z,0.99
2017-12-01T07:38:49.874Z,0.88
2017-12-01T07:39:49.868Z,0.88
2017-12-01T07:40:49.861Z,0.95
2017-12-01T07:41:49.854Z,0.92
2017-12-01T07:42:49.847Z,0.95
2017-12-01T07:43:49.839Z,0.92
2017-12-01T07:44:49.833Z,0.81
2017-12-01T07:45:49.826Z,0.63
2017-12-01T07:46:49.820Z,0.47
2017-12-01T07:47:49.812Z,0.33
2017-12-01T07:48:49.806Z,0.29
2017-12-01T07:49:49.796Z,0.24
2017-12-01T07:50:49.790Z,0.26
2017-12-01T07:51:49.783Z,0.39
2017-12-01T07:52:49.777Z,0.33
2017-12-01T07:53:49.773Z,0.47
2017-12-01T07:54:49.761Z,0.39
2017-12-01T07:55:49.794Z,0.42
2017-12-01T07:56:49.747Z,0.30
2017-12-01T07:57:49.739Z,0.33
2017-12-01T07:58:49.731Z,0.19
2017-12-01T07:59:49.726Z,0.02
2017-12-01T08:00:49.719Z,-0.06
2017-12-01T08:01:49.711Z,-0.06
2017-12-01T08:02:49.704Z,-0.03
2017-12-01T08:03:49.701Z,-0.10
2017-12-01T08:04:49.690Z,0.02
2017-12-01T08:05:49.682Z,0.05
2017-12-01T08:06:49.676Z,0.09
2017-12-01T08:07:49.668Z,0.18
2017-12-01T08:08:49.673Z,0.24
2017-12-01T08:09:49.653Z,0.29
2017-12-01T08:10:49.646Z,0.31
2017-12-01T08:11:49.647Z,0.26
2017-12-01T08:12:49.632Z,0.34
2017-12-01T08:13:49.625Z,0.30
2017-12-01T08:14:49.662Z,0.31
2017-12-01T08:15:49.609Z,0.34
2017-12-01T08:16:49.603Z,0.33
2017-12-01T08:17:49.596Z,0.40
2017-12-01T08:18:49.587Z,0.47
2017-12-01T08:19:49.581Z,0.40
2017-12-01T08:20:49.576Z,0.31
2017-12-01T08:21:49.566Z,0.44
2017-12-01T08:22:49.560Z,0.27
2017-12-01T08:23:49.552Z,0.36
2017-12-01T08:24:49.545Z,0.42
2017-12-01T08:25:49.538Z,0.40
2017-12-01T08:26:49.530Z,0.16
2017-12-01T08:27:49.524Z,0.11
2017-12-01T08:28:49.517Z,0.00
2017-12-01T08:29:49.510Z,0.02
2017-12-01T08:30:49.504Z,-0.06
2017-12-01T08:31:49.495Z,0.00
2017-12-01T08:32:49.487Z,0.01
2017-12-01T08:33:49.479Z,-0.03
2017-12-01T08:34:49.474Z,-0.07
2017-12-01T08:35:49.467Z,-0.18
2017-12-01T08:36:49.458Z,-0.09
2017-12-01T08:37:49.451Z,-0.05
2017-12-01T08:38:49.445Z,-0.02
2017-12-01T08:39:49.437Z,0.02
2017-12-01T08:40:49.431Z,-0.10
2017-12-01T08:41:49.424Z,-0.03
2017-12-01T08:42:49.419Z,-0.06
2017-12-01T08:43:49.409Z,-0.09
2017-12-01T08:44:49.401Z,-0.13
2017-12-01T08:45:49.394Z,-0.09
2017-12-01T08:46:49.386Z,-0.02
2017-12-01T08:47:49.379Z,0.02
2017-12-01T08:48:49.372Z,-0.03
2017-12-01T08:49:49.364Z,-0.12
2017-12-01T08:50:49.358Z,-0.09
2017-12-01T08:51:49.350Z,-0.15
2017-12-01T08:52:49.348Z,-0.13
2017-12-01T08:53:49.335Z,-0.05
2017-12-01T08:54:49.329Z,0.00
2017-12-01T08:55:49.321Z,-0.02
2017-12-01T08:56:49.492Z,-0.10
2017-12-01T08:57:49.305Z,-0.26
2017-12-01T08:58:49.300Z,-0.17
2017-12-01T08:59:49.292Z,-0.15
2017-12-01T09:00:49.287Z,-0.12
2017-12-01T09:01:49.277Z,-0.06
2017-12-01T09:02:49.269Z,-0.03
2017-12-01T09:03:49.263Z,0.05
2017-12-01T09:04:49.261Z,0.18
2017-12-01T09:05:49.247Z,0.23
2017-12-01T09:06:49.242Z,0.31
2017-12-01T09:07:49.235Z,0.29
2017-12-01T09:08:49.229Z,0.19
2017-12-01T09:09:49.220Z,0.08
2017-12-01T09:10:49.213Z,0.01
2017-12-01T09:11:49.206Z,-0.13
2017-12-01T09:12:49.200Z,-0.18
2017-12-01T09:13:49.189Z,-0.12
2017-12-01T09:14:49.184Z,-0.10
2017-12-01T09:15:49.177Z,0.00
2017-12-01T09:16:49.168Z,-0.03
2017-12-01T09:17:49.161Z,0.08
2017-12-01T09:18:49.154Z,0.02
2017-12-01T09:19:49.148Z,0.11
2017-12-01T09:20:49.155Z,0.23
2017-12-01T09:21:49.139Z,0.37
2017-12-01T09:22:49.125Z,0.47
2017-12-01T09:23:49.120Z,0.61
2017-12-01T09:24:49.113Z,0.59
2017-12-01T09:25:49.106Z,0.64
2017-12-01T09:26:49.099Z,0.56
2017-12-01T09:27:49.092Z,0.59
2017-12-01T09:28:49.085Z,0.67
2017-12-01T09:29:49.077Z,0.67
2017-12-01T09:30:49.070Z,0.63
2017-12-01T09:31:49.063Z,0.67
2017-12-01T09:32:49.058Z,0.55
2017-12-01T09:33:49.049Z,0.63
2017-12-01T09:34:49.044Z,0.58
2017-12-01T09:35:49.036Z,0.68
2017-12-01T09:36:49.030Z,0.61
2017-12-01T09:37:49.022Z,0.64
2017-12-01T09:38:49.016Z,0.61
2017-12-01T09:39:49.013Z,0.71
2017-12-01T09:40:49.003Z,0.76
2017-12-01T09:41:48.995Z,0.76
2017-12-01T09:42:48.990Z,0.64
2017-12-01T09:43:48.983Z,0.74
2017-12-01T09:44:48.976Z,0.71
2017-12-01T09:45:48.968Z,0.78
2017-12-01T09:46:48.963Z,0.78
2017-12-01T09:47:48.955Z,0.76
2017-12-01T09:48:48.950Z,0.82
2017-12-01T09:49:48.941Z,0.74
2017-12-01T09:50:48.937Z,0.91
2017-12-01T09:51:48.929Z,0.95
2017-12-01T09:52:48.923Z,0.95
2017-12-01T09:53:48.916Z,1.14
2017-12-01T09:54:48.909Z,1.18
2017-12-01T09:55:48.903Z,1.14
2017-12-01T09:56:48.896Z,1.14
2017-12-01T09:57:48.890Z,1.14
2017-12-01T09:58:48.884Z,1.27
2017-12-01T09:59:48.876Z,1.22
2017-12-01T10:00:48.872Z,1.24
2017-12-01T10:01:48.923Z,1.10
2017-12-01T10:02:48.856Z,1.21
2017-12-01T10:03:48.851Z,1.28
2017-12-01T10:04:48.844Z,1.31
2017-12-01T10:05:48.839Z,1.22
2017-12-01T10:06:48.833Z,1.27
2017-12-01T10:07:48.827Z,1.21
2017-12-01T10:08:48.821Z,1.14
2017-12-01T10:09:48.817Z,1.12
2017-12-01T10:10:48.808Z,1.10
2017-12-01T10:11:48.802Z,1.16
2017-12-01T10:12:48.796Z,1.20
2017-12-01T10:13:48.788Z,1.10
2017-12-01T10:14:48.784Z,1.07
2017-12-01T10:15:48.777Z,1.14
2017-12-01T10:16:48.772Z,1.06
2017-12-01T10:17:48.764Z,1.16
2017-12-01T10:18:48.760Z,1.18
2017-12-01T10:19:48.753Z,1.27
2017-12-01T10:20:48.747Z,1.39
2017-12-01T10:21:48.741Z,1.50
2017-12-01T10:22:48.733Z,1.53
2017-12-01T10:23:48.729Z,1.61
2017-12-01T10:24:48.753Z,1.76
2017-12-01T10:25:48.716Z,1.89
2017-12-01T10:26:48.711Z,1.97
2017-12-01T10:27:48.705Z,1.98
2017-12-01T10:28:48.699Z,2.10
2017-12-01T10:29:48.692Z,2.12
2017-12-01T10:30:48.688Z,2.14
2017-12-01T10:31:48.681Z,2.12
2017-12-01T10:32:48.676Z,2.15
2017-12-01T10:33:48.721Z,2.15
2017-12-01T10:34:48.664Z,2.07
2017-12-01T10:35:48.660Z,2.04
2017-12-01T10:36:48.654Z,2.07
2017-12-01T10:37:48.647Z,2.15
2017-12-01T10:38:48.643Z,2.26
2017-12-01T10:39:48.637Z,2.34
2017-12-01T10:40:48.631Z,2.43
2017-12-01T10:41:48.626Z,2.58
2017-12-01T10:42:48.622Z,2.65
2017-12-01T10:43:48.616Z,2.65
2017-12-01T10:44:48.611Z,2.73
2017-12-01T10:45:48.605Z,2.70
2017-12-01T10:46:48.602Z,2.68
2017-12-01T10:47:48.597Z,2.75
2017-12-01T10:48:48.592Z,2.77
2017-12-01T10:49:48.585Z,2.72
2017-12-01T10:50:48.582Z,2.69
2017-12-01T10:51:49.087Z,2.83
2017-12-01T10:52:48.571Z,2.77
2017-12-01T10:53:48.566Z,2.87
2017-12-01T10:54:48.562Z,2.76
2017-12-01T10:55:48.557Z,2.75
2017-12-01T10:56:48.554Z,2.69
2017-12-01T10:57:48.547Z,2.72
2017-12-01T10:58:48.543Z,2.68
2017-12-01T10:59:48.539Z,2.68
2017-12-01T11:00:48.535Z,2.64
2017-12-01T11:01:48.529Z,2.69
2017-12-01T11:02:48.524Z,2.80
2017-12-01T11:03:48.520Z,2.73
2017-12-01T11:04:48.516Z,2.88
2017-12-01T11:05:48.511Z,2.83
2017-12-01T11:06:48.506Z,3.00
2017-12-01T11:07:48.503Z,3.06
2017-12-01T11:08:48.499Z,2.88
2017-12-01T11:09:48.494Z,3.11
2017-12-01T11:10:48.489Z,3.09
2017-12-01T11:11:48.486Z,3.43
2017-12-01T11:12:48.482Z,3.55
2017-12-01T11:13:48.476Z,4.02
2017-12-01T11:14:48.474Z,4.24
2017-12-01T11:15:48.470Z,4.12
2017-12-01T11:16:48.468Z,4.36
2017-12-01T11:17:48.464Z,4.56
2017-12-01T11:18:48.461Z,4.46
2017-12-01T11:19:48.458Z,4.38
2017-12-01T11:20:48.456Z,4.14
2017-12-01T11:21:48.454Z,4.09
2017-12-01T11:22:48.450Z,3.91
2017-12-01T11:23:48.450Z,3.91
2017-12-01T11:24:48.445Z,3.89
2017-12-01T11:25:48.441Z,3.94
2017-12-01T11:26:48.439Z,4.06
2017-12-01T11:27:48.438Z,4.02
2017-12-01T11:28:48.434Z,4.22
2017-12-01T11:29:48.430Z,4.30
2017-12-01T11:30:48.428Z,4.31
2017-12-01T11:31:48.425Z,4.40
2017-12-01T11:32:48.424Z,4.49
2017-12-01T11:33:48.423Z,4.49
2017-12-01T11:34:48.421Z,4.38
2017-12-01T11:35:48.415Z,4.16
2017-12-01T11:36:48.413Z,4.12
2017-12-01T11:37:48.409Z,4.16
2017-12-01T11:38:48.412Z,4.14
2017-12-01T11:39:48.402Z,4.12
2017-12-01T11:40:48.402Z,4.03
2017-12-01T11:41:48.397Z,3.86
2017-12-01T11:42:48.396Z,3.71
2017-12-01T11:43:48.399Z,3.74
2017-12-01T11:44:48.390Z,3.70
2017-12-01T11:45:48.386Z,3.91
2017-12-01T11:46:48.382Z,3.89
2017-12-01T11:47:48.379Z,3.82
2017-12-01T11:48:48.377Z,3.76
2017-12-01T11:49:48.373Z,3.73
2017-12-01T11:50:48.370Z,3.76
2017-12-01T11:51:48.369Z,3.68
2017-12-01T11:52:48.365Z,3.61
2017-12-01T11:53:48.404Z,3.59
2017-12-01T11:54:48.357Z,3.48
2017-12-01T11:55:48.354Z,3.48
2017-12-01T11:56:48.353Z,3.43
2017-12-01T11:57:48.347Z,3.43
2017-12-01T11:58:48.345Z,3.46
2017-12-01T11:59:48.346Z,3.31
2017-12-01T12:00:48.338Z,3.30
2017-12-01T12:01:48.333Z,3.16
2017-12-01T12:02:48.331Z,3.26
2017-12-01T12:03:48.327Z,3.26
2017-12-01T12:04:48.322Z,3.46
2017-12-01T12:05:48.318Z,3.43
2017-12-01T12:06:48.314Z,3.49
2017-12-01T12:07:48.310Z,3.46
2017-12-01T12:08:48.307Z,3.49
2017-12-01T12:09:48.301Z,3.29
2017-12-01T12:10:48.297Z,3.13
2017-12-01T12:11:48.293Z,3.06
2017-12-01T12:12:48.290Z,2.91
2017-12-01T12:13:48.285Z,2.79
2017-12-01T12:14:48.281Z,2.77
2017-12-01T12:15:48.277Z,2.73
2017-12-01T12:16:48.275Z,2.72
2017-12-01T12:17:48.266Z,2.64
2017-12-01T12:18:48.262Z,2.76
2017-12-01T12:19:48.257Z,2.70
2017-12-01T12:20:48.253Z,2.70
2017-12-01T12:21:48.247Z,2.93
2017-12-01T12:22:48.243Z,2.91
2017-12-01T12:23:48.239Z,2.93
2017-12-01T12:24:48.234Z,2.98
2017-12-01T12:25:48.230Z,3.08
2017-12-01T12:26:48.224Z,3.19
2017-12-01T12:27:48.221Z,3.11
2017-12-01T12:28:48.215Z,3.21
2017-12-01T12:29:48.210Z,3.33
2017-12-01T12:30:48.205Z,3.24
2017-12-01T12:31:48.201Z,3.43
2017-12-01T12:32:48.239Z,3.40
2017-12-01T12:33:48.190Z,3.37
2017-12-01T12:34:48.187Z,3.41
2017-12-01T12:35:48.335Z,3.41
2017-12-01T12:36:48.178Z,3.48
2017-12-01T12:37:48.179Z,3.58
2017-12-01T12:38:48.168Z,3.55
2017-12-01T12:39:48.163Z,3.56
2017-12-01T12:40:48.179Z,3.64
2017-12-01T12:41:48.152Z,3.67
2017-12-01T12:42:48.152Z,3.61
2017-12-01T12:43:48.143Z,3.59
2017-12-01T12:44:48.140Z,3.36
2017-12-01T12:45:48.135Z,3.34
2017-12-01T12:46:48.128Z,3.40
2017-12-01T12:47:48.125Z,3.18
2017-12-01T12:48:48.120Z,3.21
2017-12-01T12:49:48.150Z,3.22
2017-12-01T12:50:48.110Z,3.16
2017-12-01T12:51:48.106Z,3.12
2017-12-01T12:52:48.101Z,3.11
2017-12-01T12:53:48.096Z,3.08
2017-12-01T12:54:48.091Z,3.06
2017-12-01T12:55:48.086Z,2.87
2017-12-01T12:56:48.081Z,2.83
2017-12-01T12:57:48.075Z,2.65
2017-12-01T12:58:48.070Z,2.65
2017-12-01T12:59:48.065Z,2.57
2017-12-01T13:00:48.062Z,2.52
2017-12-01T13:01:48.056Z,2.52
2017-12-01T13:02:48.051Z,2.59
2017-12-01T13:03:48.057Z,2.50